sensor_id;sensor_type;location;lat;lon;timestamp;P1;durP1;ratioP1;P2;durP2;ratioP2
6426;SDS011;3246;42.664;23.308;2023-07-16T00:00:09;10.10;;;8.40;;
6426;SDS011;3246;42.664;23.308;2023-07-16T00:02:37;12.70;;;9.27;;
6426;SDS011;3246;42.664;23.308;2023-07-16T00:05:05;9.77;;;8.70;;
6426;SDS011;3246;42.664;23.308;2023-07-16T00:07:34;10.52;;;9.48;;
6426;SDS011;3246;42.664;23.308;2023-07-16T00:10:01;9.27;;;8.38;;
6426;SDS011;3246;42.664;23.308;2023-07-16T00:12:27;13.43;;;7.78;;
6426;SDS011;3246;42.664;23.308;2023-07-16T00:14:54;8.95;;;8.05;;
6426;SDS011;3246;42.664;23.308;2023-07-16T00:17:22;15.13;;;8.90;;
6426;SDS011;3246;42.664;23.308;2023-07-16T00:19:49;9.43;;;8.50;;
6426;SDS011;3246;42.664;23.308;2023-07-16T00:22:15;9.85;;;8.20;;
6426;SDS011;3246;42.664;23.308;2023-07-16T00:24:43;7.63;;;7.00;;
6426;SDS011;3246;42.664;23.308;2023-07-16T00:27:10;7.45;;;6.75;;
6426;SDS011;3246;42.664;23.308;2023-07-16T00:29:37;9.80;;;8.00;;
6426;SDS011;3246;42.664;23.308;2023-07-16T00:32:04;8.38;;;7.55;;
6426;SDS011;3246;42.664;23.308;2023-07-16T00:34:31;9.20;;;7.63;;
6426;SDS011;3246;42.664;23.308;2023-07-16T00:36:58;9.90;;;7.38;;
6426;SDS011;3246;42.664;23.308;2023-07-16T00:39:27;7.85;;;7.25;;
6426;SDS011;3246;42.664;23.308;2023-07-16T00:41:55;9.63;;;7.32;;
6426;SDS011;3246;42.664;23.308;2023-07-16T00:44:22;8.23;;;7.07;;
6426;SDS011;3246;42.664;23.308;2023-07-16T00:46:49;7.80;;;6.38;;
6426;SDS011;3246;42.664;23.308;2023-07-16T00:49:16;8.02;;;7.22;;
6426;SDS011;3246;42.664;23.308;2023-07-16T00:51:43;7.40;;;6.57;;
6426;SDS011;3246;42.664;23.308;2023-07-16T00:54:11;6.95;;;6.40;;
6426;SDS011;3246;42.664;23.308;2023-07-16T00:56:38;7.43;;;6.40;;
6426;SDS011;3246;42.664;23.308;2023-07-16T00:59:06;8.35;;;7.38;;
6426;SDS011;3246;42.664;23.308;2023-07-16T01:01:34;10.02;;;6.75;;
6426;SDS011;3246;42.664;23.308;2023-07-16T01:04:00;11.40;;;6.35;;
6426;SDS011;3246;42.664;23.308;2023-07-16T01:06:29;6.68;;;6.03;;
6426;SDS011;3246;42.664;23.308;2023-07-16T01:09:02;9.15;;;6.10;;
6426;SDS011;3246;42.664;23.308;2023-07-16T01:11:32;6.38;;;5.78;;
6426;SDS011;3246;42.664;23.308;2023-07-16T01:14:01;6.70;;;5.40;;
6426;SDS011;3246;42.664;23.308;2023-07-16T01:16:29;8.75;;;6.28;;
6426;SDS011;3246;42.664;23.308;2023-07-16T01:18:57;6.35;;;5.80;;
6426;SDS011;3246;42.664;23.308;2023-07-16T01:21:24;7.95;;;6.65;;
6426;SDS011;3246;42.664;23.308;2023-07-16T01:24:04;6.22;;;5.63;;
6426;SDS011;3246;42.664;23.308;2023-07-16T01:26:53;8.60;;;6.07;;
6426;SDS011;3246;42.664;23.308;2023-07-16T01:29:32;8.90;;;5.25;;
6426;SDS011;3246;42.664;23.308;2023-07-16T01:32:02;7.78;;;6.53;;
6426;SDS011;3246;42.664;23.308;2023-07-16T01:34:31;7.10;;;6.60;;
6426;SDS011;3246;42.664;23.308;2023-07-16T01:36:59;8.70;;;5.22;;
6426;SDS011;3246;42.664;23.308;2023-07-16T01:39:27;9.52;;;5.90;;
6426;SDS011;3246;42.664;23.308;2023-07-16T01:41:54;8.43;;;5.50;;
6426;SDS011;3246;42.664;23.308;2023-07-16T01:44:20;5.90;;;5.30;;
6426;SDS011;3246;42.664;23.308;2023-07-16T01:46:49;5.78;;;5.15;;
6426;SDS011;3246;42.664;23.308;2023-07-16T01:49:30;6.07;;;5.30;;
6426;SDS011;3246;42.664;23.308;2023-07-16T01:51:56;10.02;;;4.93;;
6426;SDS011;3246;42.664;23.308;2023-07-16T01:54:23;5.80;;;5.30;;
6426;SDS011;3246;42.664;23.308;2023-07-16T01:56:50;6.38;;;5.28;;
6426;SDS011;3246;42.664;23.308;2023-07-16T01:59:17;11.50;;;5.75;;
6426;SDS011;3246;42.664;23.308;2023-07-16T02:01:43;7.78;;;6.47;;
6426;SDS011;3246;42.664;23.308;2023-07-16T02:04:11;8.32;;;6.43;;
6426;SDS011;3246;42.664;23.308;2023-07-16T02:06:38;7.95;;;5.25;;
6426;SDS011;3246;42.664;23.308;2023-07-16T02:09:05;7.97;;;5.90;;
6426;SDS011;3246;42.664;23.308;2023-07-16T02:11:32;6.55;;;5.00;;
6426;SDS011;3246;42.664;23.308;2023-07-16T02:13:58;5.95;;;5.03;;
6426;SDS011;3246;42.664;23.308;2023-07-16T02:16:25;7.60;;;5.90;;
6426;SDS011;3246;42.664;23.308;2023-07-16T02:18:52;5.95;;;5.50;;
6426;SDS011;3246;42.664;23.308;2023-07-16T02:21:20;5.57;;;4.90;;
6426;SDS011;3246;42.664;23.308;2023-07-16T02:23:47;5.40;;;5.05;;
6426;SDS011;3246;42.664;23.308;2023-07-16T02:26:13;5.45;;;4.95;;
6426;SDS011;3246;42.664;23.308;2023-07-16T02:28:40;7.13;;;5.38;;
6426;SDS011;3246;42.664;23.308;2023-07-16T02:31:07;5.68;;;5.18;;
6426;SDS011;3246;42.664;23.308;2023-07-16T02:33:34;8.63;;;5.22;;
6426;SDS011;3246;42.664;23.308;2023-07-16T02:36:00;8.43;;;5.32;;
6426;SDS011;3246;42.664;23.308;2023-07-16T02:38:28;8.57;;;5.22;;
6426;SDS011;3246;42.664;23.308;2023-07-16T02:40:55;10.10;;;5.38;;
6426;SDS011;3246;42.664;23.308;2023-07-16T02:43:22;5.60;;;4.53;;
6426;SDS011;3246;42.664;23.308;2023-07-16T02:45:49;6.60;;;4.90;;
6426;SDS011;3246;42.664;23.308;2023-07-16T02:48:16;6.72;;;4.53;;
6426;SDS011;3246;42.664;23.308;2023-07-16T02:50:42;5.47;;;4.95;;
6426;SDS011;3246;42.664;23.308;2023-07-16T02:53:09;6.30;;;5.05;;
6426;SDS011;3246;42.664;23.308;2023-07-16T02:55:37;5.05;;;4.65;;
6426;SDS011;3246;42.664;23.308;2023-07-16T02:58:04;7.03;;;4.97;;
6426;SDS011;3246;42.664;23.308;2023-07-16T03:00:31;6.78;;;5.28;;
6426;SDS011;3246;42.664;23.308;2023-07-16T03:02:58;4.75;;;4.30;;
6426;SDS011;3246;42.664;23.308;2023-07-16T03:05:26;9.63;;;4.95;;
6426;SDS011;3246;42.664;23.308;2023-07-16T03:07:53;7.75;;;4.90;;
6426;SDS011;3246;42.664;23.308;2023-07-16T03:10:20;4.90;;;4.38;;
6426;SDS011;3246;42.664;23.308;2023-07-16T03:12:48;5.88;;;5.30;;
6426;SDS011;3246;42.664;23.308;2023-07-16T03:15:15;6.22;;;4.93;;
6426;SDS011;3246;42.664;23.308;2023-07-16T03:17:42;5.97;;;5.30;;
6426;SDS011;3246;42.664;23.308;2023-07-16T03:20:09;8.40;;;4.68;;
6426;SDS011;3246;42.664;23.308;2023-07-16T03:22:36;6.95;;;4.72;;
6426;SDS011;3246;42.664;23.308;2023-07-16T03:25:03;6.03;;;4.35;;
6426;SDS011;3246;42.664;23.308;2023-07-16T03:27:31;5.25;;;4.80;;
6426;SDS011;3246;42.664;23.308;2023-07-16T03:29:59;6.82;;;5.60;;
6426;SDS011;3246;42.664;23.308;2023-07-16T03:32:25;11.65;;;4.47;;
6426;SDS011;3246;42.664;23.308;2023-07-16T03:34:52;5.47;;;4.93;;
6426;SDS011;3246;42.664;23.308;2023-07-16T03:37:19;4.60;;;4.30;;
6426;SDS011;3246;42.664;23.308;2023-07-16T03:39:46;5.07;;;4.57;;
6426;SDS011;3246;42.664;23.308;2023-07-16T03:42:12;7.03;;;4.57;;
6426;SDS011;3246;42.664;23.308;2023-07-16T03:44:39;5.38;;;4.25;;
6426;SDS011;3246;42.664;23.308;2023-07-16T03:47:07;5.28;;;4.70;;
6426;SDS011;3246;42.664;23.308;2023-07-16T03:49:34;6.35;;;4.72;;
6426;SDS011;3246;42.664;23.308;2023-07-16T03:52:01;6.65;;;5.07;;
6426;SDS011;3246;42.664;23.308;2023-07-16T03:54:27;8.57;;;5.63;;
6426;SDS011;3246;42.664;23.308;2023-07-16T03:56:54;5.95;;;5.22;;
6426;SDS011;3246;42.664;23.308;2023-07-16T03:59:21;6.75;;;4.90;;
6426;SDS011;3246;42.664;23.308;2023-07-16T04:01:48;8.45;;;5.50;;
6426;SDS011;3246;42.664;23.308;2023-07-16T04:04:16;5.63;;;4.95;;
6426;SDS011;3246;42.664;23.308;2023-07-16T04:06:43;6.57;;;5.40;;
6426;SDS011;3246;42.664;23.308;2023-07-16T04:09:09;8.07;;;5.90;;
6426;SDS011;3246;42.664;23.308;2023-07-16T04:11:36;10.95;;;5.70;;
6426;SDS011;3246;42.664;23.308;2023-07-16T04:14:03;5.05;;;4.55;;
6426;SDS011;3246;42.664;23.308;2023-07-16T04:16:29;9.10;;;4.65;;
6426;SDS011;3246;42.664;23.308;2023-07-16T04:18:56;6.65;;;5.78;;
6426;SDS011;3246;42.664;23.308;2023-07-16T04:21:24;10.20;;;6.18;;
6426;SDS011;3246;42.664;23.308;2023-07-16T04:23:51;5.43;;;4.88;;
6426;SDS011;3246;42.664;23.308;2023-07-16T04:26:18;9.45;;;5.88;;
6426;SDS011;3246;42.664;23.308;2023-07-16T04:28:44;5.10;;;4.65;;
6426;SDS011;3246;42.664;23.308;2023-07-16T04:31:11;6.20;;;5.20;;
6426;SDS011;3246;42.664;23.308;2023-07-16T04:33:38;5.45;;;4.82;;
6426;SDS011;3246;42.664;23.308;2023-07-16T04:36:05;8.02;;;6.95;;
6426;SDS011;3246;42.664;23.308;2023-07-16T04:38:33;9.40;;;5.90;;
6426;SDS011;3246;42.664;23.308;2023-07-16T04:41:00;8.60;;;5.90;;
6426;SDS011;3246;42.664;23.308;2023-07-16T04:43:26;5.95;;;5.47;;
6426;SDS011;3246;42.664;23.308;2023-07-16T04:45:53;11.95;;;6.00;;
6426;SDS011;3246;42.664;23.308;2023-07-16T04:48:20;5.95;;;5.38;;
6426;SDS011;3246;42.664;23.308;2023-07-16T04:50:47;7.22;;;5.03;;
6426;SDS011;3246;42.664;23.308;2023-07-16T04:53:13;8.82;;;5.97;;
6426;SDS011;3246;42.664;23.308;2023-07-16T04:55:45;8.50;;;5.38;;
6426;SDS011;3246;42.664;23.308;2023-07-16T04:58:11;6.25;;;5.13;;
6426;SDS011;3246;42.664;23.308;2023-07-16T05:00:38;8.27;;;6.07;;
6426;SDS011;3246;42.664;23.308;2023-07-16T05:03:06;9.68;;;5.97;;
6426;SDS011;3246;42.664;23.308;2023-07-16T05:05:33;11.63;;;6.47;;
6426;SDS011;3246;42.664;23.308;2023-07-16T05:08:00;8.40;;;6.38;;
6426;SDS011;3246;42.664;23.308;2023-07-16T05:10:27;6.68;;;6.07;;
6426;SDS011;3246;42.664;23.308;2023-07-16T05:12:55;5.95;;;5.05;;
6426;SDS011;3246;42.664;23.308;2023-07-16T05:15:22;8.27;;;5.47;;
6426;SDS011;3246;42.664;23.308;2023-07-16T05:17:49;5.75;;;5.35;;
6426;SDS011;3246;42.664;23.308;2023-07-16T05:20:16;5.93;;;5.05;;
6426;SDS011;3246;42.664;23.308;2023-07-16T05:22:42;6.07;;;5.40;;
6426;SDS011;3246;42.664;23.308;2023-07-16T05:25:09;7.20;;;4.75;;
6426;SDS011;3246;42.664;23.308;2023-07-16T05:27:36;6.22;;;5.72;;
6426;SDS011;3246;42.664;23.308;2023-07-16T05:30:05;11.98;;;5.45;;
6426;SDS011;3246;42.664;23.308;2023-07-16T05:32:32;5.95;;;5.00;;
6426;SDS011;3246;42.664;23.308;2023-07-16T05:34:59;11.13;;;5.50;;
6426;SDS011;3246;42.664;23.308;2023-07-16T05:37:26;5.38;;;4.97;;
6426;SDS011;3246;42.664;23.308;2023-07-16T05:39:51;6.20;;;5.68;;
6426;SDS011;3246;42.664;23.308;2023-07-16T05:42:18;6.60;;;5.60;;
6426;SDS011;3246;42.664;23.308;2023-07-16T05:44:46;7.03;;;5.57;;
6426;SDS011;3246;42.664;23.308;2023-07-16T05:47:15;6.72;;;4.82;;
6426;SDS011;3246;42.664;23.308;2023-07-16T05:49:41;6.43;;;5.57;;
6426;SDS011;3246;42.664;23.308;2023-07-16T05:52:08;8.07;;;5.07;;
6426;SDS011;3246;42.664;23.308;2023-07-16T05:54:35;7.32;;;5.93;;
6426;SDS011;3246;42.664;23.308;2023-07-16T05:57:02;7.65;;;5.38;;
6426;SDS011;3246;42.664;23.308;2023-07-16T05:59:28;12.75;;;5.70;;
6426;SDS011;3246;42.664;23.308;2023-07-16T06:01:59;8.95;;;5.07;;
6426;SDS011;3246;42.664;23.308;2023-07-16T06:04:27;6.05;;;5.32;;
6426;SDS011;3246;42.664;23.308;2023-07-16T06:06:54;6.47;;;5.40;;
6426;SDS011;3246;42.664;23.308;2023-07-16T06:09:21;6.07;;;5.38;;
6426;SDS011;3246;42.664;23.308;2023-07-16T06:11:48;5.80;;;4.70;;
6426;SDS011;3246;42.664;23.308;2023-07-16T06:14:15;7.43;;;5.32;;
6426;SDS011;3246;42.664;23.308;2023-07-16T06:16:42;6.82;;;5.03;;
6426;SDS011;3246;42.664;23.308;2023-07-16T06:19:09;7.57;;;5.40;;
6426;SDS011;3246;42.664;23.308;2023-07-16T06:21:37;5.93;;;5.25;;
6426;SDS011;3246;42.664;23.308;2023-07-16T06:24:04;7.05;;;6.30;;
6426;SDS011;3246;42.664;23.308;2023-07-16T06:26:31;7.35;;;5.05;;
6426;SDS011;3246;42.664;23.308;2023-07-16T06:28:58;5.13;;;4.65;;
6426;SDS011;3246;42.664;23.308;2023-07-16T06:31:24;6.00;;;5.05;;
6426;SDS011;3246;42.664;23.308;2023-07-16T06:33:51;6.28;;;4.85;;
6426;SDS011;3246;42.664;23.308;2023-07-16T06:36:18;7.82;;;4.70;;
6426;SDS011;3246;42.664;23.308;2023-07-16T06:38:47;11.75;;;5.68;;
6426;SDS011;3246;42.664;23.308;2023-07-16T06:41:13;8.02;;;5.45;;
6426;SDS011;3246;42.664;23.308;2023-07-16T06:43:40;6.68;;;6.07;;
6426;SDS011;3246;42.664;23.308;2023-07-16T06:46:07;6.80;;;6.22;;
6426;SDS011;3246;42.664;23.308;2023-07-16T06:48:34;6.20;;;5.72;;
6426;SDS011;3246;42.664;23.308;2023-07-16T06:51:00;5.18;;;4.65;;
6426;SDS011;3246;42.664;23.308;2023-07-16T06:53:27;6.78;;;5.10;;
6426;SDS011;3246;42.664;23.308;2023-07-16T06:55:55;8.43;;;6.32;;
6426;SDS011;3246;42.664;23.308;2023-07-16T06:58:30;6.45;;;5.85;;
6426;SDS011;3246;42.664;23.308;2023-07-16T07:00:57;8.30;;;6.38;;
6426;SDS011;3246;42.664;23.308;2023-07-16T07:03:24;8.90;;;5.63;;
6426;SDS011;3246;42.664;23.308;2023-07-16T07:05:51;11.80;;;6.40;;
6426;SDS011;3246;42.664;23.308;2023-07-16T07:08:17;6.75;;;5.93;;
6426;SDS011;3246;42.664;23.308;2023-07-16T07:10:44;6.95;;;6.40;;
6426;SDS011;3246;42.664;23.308;2023-07-16T07:13:13;6.40;;;5.75;;
6426;SDS011;3246;42.664;23.308;2023-07-16T07:15:41;7.40;;;6.70;;
6426;SDS011;3246;42.664;23.308;2023-07-16T07:18:08;7.47;;;6.20;;
6426;SDS011;3246;42.664;23.308;2023-07-16T07:20:35;12.60;;;6.10;;
6426;SDS011;3246;42.664;23.308;2023-07-16T07:23:01;6.60;;;6.00;;
6426;SDS011;3246;42.664;23.308;2023-07-16T07:25:30;6.63;;;6.03;;
6426;SDS011;3246;42.664;23.308;2023-07-16T07:27:57;7.40;;;6.80;;
6426;SDS011;3246;42.664;23.308;2023-07-16T07:30:25;8.20;;;7.18;;
6426;SDS011;3246;42.664;23.308;2023-07-16T07:32:52;8.43;;;6.78;;
6426;SDS011;3246;42.664;23.308;2023-07-16T07:35:18;7.35;;;6.75;;
6426;SDS011;3246;42.664;23.308;2023-07-16T07:37:45;6.45;;;5.85;;
6426;SDS011;3246;42.664;23.308;2023-07-16T07:40:12;8.63;;;7.00;;
6426;SDS011;3246;42.664;23.308;2023-07-16T07:42:39;8.88;;;7.13;;
6426;SDS011;3246;42.664;23.308;2023-07-16T07:45:06;7.85;;;6.40;;
6426;SDS011;3246;42.664;23.308;2023-07-16T07:47:34;10.23;;;6.93;;
6426;SDS011;3246;42.664;23.308;2023-07-16T07:50:01;9.32;;;6.57;;
6426;SDS011;3246;42.664;23.308;2023-07-16T07:52:28;7.13;;;6.40;;
6426;SDS011;3246;42.664;23.308;2023-07-16T07:54:55;8.05;;;6.70;;
6426;SDS011;3246;42.664;23.308;2023-07-16T07:57:21;7.60;;;6.15;;
6426;SDS011;3246;42.664;23.308;2023-07-16T07:59:48;6.90;;;6.20;;
6426;SDS011;3246;42.664;23.308;2023-07-16T08:02:17;8.65;;;7.50;;
6426;SDS011;3246;42.664;23.308;2023-07-16T08:04:47;7.15;;;6.22;;
6426;SDS011;3246;42.664;23.308;2023-07-16T08:07:14;9.55;;;6.80;;
6426;SDS011;3246;42.664;23.308;2023-07-16T08:09:41;7.53;;;6.03;;
6426;SDS011;3246;42.664;23.308;2023-07-16T08:12:08;7.68;;;6.65;;
6426;SDS011;3246;42.664;23.308;2023-07-16T08:14:35;6.95;;;6.35;;
6426;SDS011;3246;42.664;23.308;2023-07-16T08:17:01;6.47;;;5.85;;
6426;SDS011;3246;42.664;23.308;2023-07-16T08:19:28;9.63;;;7.45;;
6426;SDS011;3246;42.664;23.308;2023-07-16T08:21:56;7.80;;;6.00;;
6426;SDS011;3246;42.664;23.308;2023-07-16T08:24:24;7.40;;;6.80;;
6426;SDS011;3246;42.664;23.308;2023-07-16T08:26:51;12.13;;;6.80;;
6426;SDS011;3246;42.664;23.308;2023-07-16T08:29:18;8.27;;;7.32;;
6426;SDS011;3246;42.664;23.308;2023-07-16T08:31:45;6.78;;;6.22;;
6426;SDS011;3246;42.664;23.308;2023-07-16T08:34:11;8.05;;;6.35;;
6426;SDS011;3246;42.664;23.308;2023-07-16T08:36:38;8.35;;;7.53;;
6426;SDS011;3246;42.664;23.308;2023-07-16T08:39:06;7.85;;;7.30;;
6426;SDS011;3246;42.664;23.308;2023-07-16T08:41:33;8.50;;;7.57;;
6426;SDS011;3246;42.664;23.308;2023-07-16T08:44:00;10.95;;;7.82;;
6426;SDS011;3246;42.664;23.308;2023-07-16T08:46:27;14.30;;;8.25;;
6426;SDS011;3246;42.664;23.308;2023-07-16T08:48:54;8.65;;;7.28;;
6426;SDS011;3246;42.664;23.308;2023-07-16T08:51:22;8.40;;;7.68;;
6426;SDS011;3246;42.664;23.308;2023-07-16T08:53:50;7.93;;;7.03;;
6426;SDS011;3246;42.664;23.308;2023-07-16T08:56:18;8.20;;;7.60;;
6426;SDS011;3246;42.664;23.308;2023-07-16T08:58:46;9.32;;;7.55;;
6426;SDS011;3246;42.664;23.308;2023-07-16T09:01:13;10.00;;;9.15;;
6426;SDS011;3246;42.664;23.308;2023-07-16T09:03:43;8.90;;;8.10;;
6426;SDS011;3246;42.664;23.308;2023-07-16T09:06:10;8.02;;;7.22;;
6426;SDS011;3246;42.664;23.308;2023-07-16T09:08:36;9.02;;;7.68;;
6426;SDS011;3246;42.664;23.308;2023-07-16T09:11:03;8.30;;;7.68;;
6426;SDS011;3246;42.664;23.308;2023-07-16T09:13:32;7.82;;;7.22;;
6426;SDS011;3246;42.664;23.308;2023-07-16T09:15:58;11.43;;;8.07;;
6426;SDS011;3246;42.664;23.308;2023-07-16T09:18:25;9.43;;;8.68;;
6426;SDS011;3246;42.664;23.308;2023-07-16T09:20:56;14.65;;;9.88;;
6426;SDS011;3246;42.664;23.308;2023-07-16T09:23:25;11.32;;;8.40;;
6426;SDS011;3246;42.664;23.308;2023-07-16T09:25:53;12.85;;;7.53;;
6426;SDS011;3246;42.664;23.308;2023-07-16T09:28:20;8.45;;;7.50;;
6426;SDS011;3246;42.664;23.308;2023-07-16T09:30:50;10.82;;;9.73;;
6426;SDS011;3246;42.664;23.308;2023-07-16T09:33:19;11.07;;;8.32;;
6426;SDS011;3246;42.664;23.308;2023-07-16T09:35:47;11.60;;;8.75;;
6426;SDS011;3246;42.664;23.308;2023-07-16T09:38:15;9.65;;;8.73;;
6426;SDS011;3246;42.664;23.308;2023-07-16T09:40:42;8.77;;;7.72;;
6426;SDS011;3246;42.664;23.308;2023-07-16T09:43:10;9.23;;;8.43;;
6426;SDS011;3246;42.664;23.308;2023-07-16T09:45:37;14.77;;;8.18;;
6426;SDS011;3246;42.664;23.308;2023-07-16T09:48:06;8.75;;;8.05;;
6426;SDS011;3246;42.664;23.308;2023-07-16T09:50:34;11.27;;;7.93;;
6426;SDS011;3246;42.664;23.308;2023-07-16T09:53:03;14.05;;;12.07;;
6426;SDS011;3246;42.664;23.308;2023-07-16T09:55:32;11.13;;;8.38;;
6426;SDS011;3246;42.664;23.308;2023-07-16T09:58:02;9.75;;;7.82;;
6426;SDS011;3246;42.664;23.308;2023-07-16T10:00:34;14.73;;;12.40;;
6426;SDS011;3246;42.664;23.308;2023-07-16T10:03:05;11.63;;;9.20;;
6426;SDS011;3246;42.664;23.308;2023-07-16T10:05:35;15.95;;;13.35;;
6426;SDS011;3246;42.664;23.308;2023-07-16T10:08:03;11.88;;;10.77;;
6426;SDS011;3246;42.664;23.308;2023-07-16T10:10:37;14.32;;;12.23;;
6426;SDS011;3246;42.664;23.308;2023-07-16T10:13:06;11.30;;;10.00;;
6426;SDS011;3246;42.664;23.308;2023-07-16T10:15:34;12.48;;;9.55;;
6426;SDS011;3246;42.664;23.308;2023-07-16T10:18:00;11.48;;;9.10;;
6426;SDS011;3246;42.664;23.308;2023-07-16T10:20:29;13.48;;;9.30;;
6426;SDS011;3246;42.664;23.308;2023-07-16T10:22:57;16.13;;;9.88;;
6426;SDS011;3246;42.664;23.308;2023-07-16T10:25:25;17.13;;;10.57;;
6426;SDS011;3246;42.664;23.308;2023-07-16T10:27:53;11.18;;;9.88;;
6426;SDS011;3246;42.664;23.308;2023-07-16T10:30:20;14.48;;;9.80;;
6426;SDS011;3246;42.664;23.308;2023-07-16T10:32:49;12.23;;;9.63;;
6426;SDS011;3246;42.664;23.308;2023-07-16T10:35:17;11.50;;;9.15;;
6426;SDS011;3246;42.664;23.308;2023-07-16T10:37:45;13.13;;;10.13;;
6426;SDS011;3246;42.664;23.308;2023-07-16T10:40:12;9.88;;;8.98;;
6426;SDS011;3246;42.664;23.308;2023-07-16T10:42:40;13.88;;;9.95;;
6426;SDS011;3246;42.664;23.308;2023-07-16T10:45:08;11.02;;;10.00;;
6426;SDS011;3246;42.664;23.308;2023-07-16T10:47:36;12.40;;;9.32;;
6426;SDS011;3246;42.664;23.308;2023-07-16T10:50:04;11.70;;;9.50;;
6426;SDS011;3246;42.664;23.308;2023-07-16T10:52:32;10.85;;;9.07;;
6426;SDS011;3246;42.664;23.308;2023-07-16T10:55:01;10.70;;;9.60;;
6426;SDS011;3246;42.664;23.308;2023-07-16T10:57:28;10.55;;;9.50;;
6426;SDS011;3246;42.664;23.308;2023-07-16T10:59:55;12.10;;;8.68;;
6426;SDS011;3246;42.664;23.308;2023-07-16T11:02:23;11.52;;;9.38;;
6426;SDS011;3246;42.664;23.308;2023-07-16T11:04:51;10.52;;;9.48;;
6426;SDS011;3246;42.664;23.308;2023-07-16T11:07:19;13.25;;;9.50;;
6426;SDS011;3246;42.664;23.308;2023-07-16T11:09:46;11.55;;;9.95;;
6426;SDS011;3246;42.664;23.308;2023-07-16T11:12:16;9.10;;;8.30;;
6426;SDS011;3246;42.664;23.308;2023-07-16T11:14:45;12.48;;;9.60;;
6426;SDS011;3246;42.664;23.308;2023-07-16T11:17:13;12.32;;;10.15;;
6426;SDS011;3246;42.664;23.308;2023-07-16T11:19:44;15.30;;;10.55;;
6426;SDS011;3246;42.664;23.308;2023-07-16T11:22:12;11.02;;;9.20;;
6426;SDS011;3246;42.664;23.308;2023-07-16T11:24:39;9.88;;;8.70;;
6426;SDS011;3246;42.664;23.308;2023-07-16T11:27:12;10.52;;;9.48;;
6426;SDS011;3246;42.664;23.308;2023-07-16T11:29:44;10.05;;;9.00;;
6426;SDS011;3246;42.664;23.308;2023-07-16T11:32:11;9.77;;;8.82;;
6426;SDS011;3246;42.664;23.308;2023-07-16T11:34:51;11.48;;;10.38;;
6426;SDS011;3246;42.664;23.308;2023-07-16T11:37:18;14.85;;;10.05;;
6426;SDS011;3246;42.664;23.308;2023-07-16T11:39:46;10.80;;;9.75;;
6426;SDS011;3246;42.664;23.308;2023-07-16T11:42:13;14.80;;;11.90;;
6426;SDS011;3246;42.664;23.308;2023-07-16T11:44:42;15.93;;;13.27;;
6426;SDS011;3246;42.664;23.308;2023-07-16T11:47:09;13.57;;;10.25;;
6426;SDS011;3246;42.664;23.308;2023-07-16T11:49:35;9.60;;;8.75;;
6426;SDS011;3246;42.664;23.308;2023-07-16T11:52:02;11.20;;;8.70;;
6426;SDS011;3246;42.664;23.308;2023-07-16T11:54:29;15.07;;;12.43;;
6426;SDS011;3246;42.664;23.308;2023-07-16T11:56:56;13.27;;;9.40;;
6426;SDS011;3246;42.664;23.308;2023-07-16T11:59:23;10.10;;;9.27;;
6426;SDS011;3246;42.664;23.308;2023-07-16T12:01:51;12.00;;;9.55;;
6426;SDS011;3246;42.664;23.308;2023-07-16T12:04:19;14.32;;;8.45;;
6426;SDS011;3246;42.664;23.308;2023-07-16T12:06:46;12.27;;;9.75;;
6426;SDS011;3246;42.664;23.308;2023-07-16T12:09:13;11.05;;;8.82;;
6426;SDS011;3246;42.664;23.308;2023-07-16T12:11:39;9.98;;;8.95;;
6426;SDS011;3246;42.664;23.308;2023-07-16T12:14:06;15.77;;;9.25;;
6426;SDS011;3246;42.664;23.308;2023-07-16T12:16:33;10.10;;;9.10;;
6426;SDS011;3246;42.664;23.308;2023-07-16T12:19:02;9.90;;;9.00;;
6426;SDS011;3246;42.664;23.308;2023-07-16T12:21:28;13.07;;;9.35;;
6426;SDS011;3246;42.664;23.308;2023-07-16T12:23:55;12.52;;;8.50;;
6426;SDS011;3246;42.664;23.308;2023-07-16T12:26:22;10.88;;;9.35;;
6426;SDS011;3246;42.664;23.308;2023-07-16T12:28:49;11.77;;;9.02;;
6426;SDS011;3246;42.664;23.308;2023-07-16T12:31:16;11.07;;;9.40;;
6426;SDS011;3246;42.664;23.308;2023-07-16T12:33:43;17.20;;;14.13;;
6426;SDS011;3246;42.664;23.308;2023-07-16T12:36:11;22.63;;;18.77;;
6426;SDS011;3246;42.664;23.308;2023-07-16T12:38:39;16.02;;;14.40;;
6426;SDS011;3246;42.664;23.308;2023-07-16T12:41:05;14.27;;;11.05;;
6426;SDS011;3246;42.664;23.308;2023-07-16T12:43:32;10.88;;;9.00;;
6426;SDS011;3246;42.664;23.308;2023-07-16T12:46:00;10.60;;;9.70;;
6426;SDS011;3246;42.664;23.308;2023-07-16T12:48:27;8.23;;;7.45;;
6426;SDS011;3246;42.664;23.308;2023-07-16T12:50:54;12.48;;;9.52;;
6426;SDS011;3246;42.664;23.308;2023-07-16T12:53:23;9.65;;;8.70;;
6426;SDS011;3246;42.664;23.308;2023-07-16T12:55:49;9.48;;;8.63;;
6426;SDS011;3246;42.664;23.308;2023-07-16T12:58:16;11.43;;;9.02;;
6426;SDS011;3246;42.664;23.308;2023-07-16T13:00:43;10.55;;;8.07;;
6426;SDS011;3246;42.664;23.308;2023-07-16T13:03:10;9.80;;;7.90;;
6426;SDS011;3246;42.664;23.308;2023-07-16T13:05:39;12.48;;;11.25;;
6426;SDS011;3246;42.664;23.308;2023-07-16T13:08:06;12.05;;;10.75;;
6426;SDS011;3246;42.664;23.308;2023-07-16T13:10:34;10.35;;;9.15;;
6426;SDS011;3246;42.664;23.308;2023-07-16T13:13:01;9.63;;;8.77;;
6426;SDS011;3246;42.664;23.308;2023-07-16T13:15:29;8.32;;;7.65;;
6426;SDS011;3246;42.664;23.308;2023-07-16T13:17:56;11.02;;;8.60;;
6426;SDS011;3246;42.664;23.308;2023-07-16T13:20:23;11.15;;;7.65;;
6426;SDS011;3246;42.664;23.308;2023-07-16T13:22:49;9.82;;;8.95;;
6426;SDS011;3246;42.664;23.308;2023-07-16T13:25:17;20.13;;;10.00;;
6426;SDS011;3246;42.664;23.308;2023-07-16T13:27:45;9.57;;;7.82;;
6426;SDS011;3246;42.664;23.308;2023-07-16T13:30:13;9.25;;;8.25;;
6426;SDS011;3246;42.664;23.308;2023-07-16T13:32:40;8.50;;;7.78;;
6426;SDS011;3246;42.664;23.308;2023-07-16T13:35:07;8.32;;;7.53;;
6426;SDS011;3246;42.664;23.308;2023-07-16T13:37:34;9.45;;;8.30;;
6426;SDS011;3246;42.664;23.308;2023-07-16T13:40:01;13.68;;;8.82;;
6426;SDS011;3246;42.664;23.308;2023-07-16T13:42:29;9.15;;;7.13;;
6426;SDS011;3246;42.664;23.308;2023-07-16T13:44:57;9.65;;;8.63;;
6426;SDS011;3246;42.664;23.308;2023-07-16T13:47:24;9.77;;;7.75;;
6426;SDS011;3246;42.664;23.308;2023-07-16T13:49:51;9.00;;;7.93;;
6426;SDS011;3246;42.664;23.308;2023-07-16T13:52:17;10.40;;;7.40;;
6426;SDS011;3246;42.664;23.308;2023-07-16T13:54:44;7.75;;;6.97;;
6426;SDS011;3246;42.664;23.308;2023-07-16T13:57:11;8.32;;;7.53;;
6426;SDS011;3246;42.664;23.308;2023-07-16T13:59:38;8.18;;;7.20;;
6426;SDS011;3246;42.664;23.308;2023-07-16T14:02:07;10.07;;;6.72;;
6426;SDS011;3246;42.664;23.308;2023-07-16T14:04:34;9.95;;;7.13;;
6426;SDS011;3246;42.664;23.308;2023-07-16T14:07:00;8.50;;;7.70;;
6426;SDS011;3246;42.664;23.308;2023-07-16T14:09:27;11.18;;;6.70;;
6426;SDS011;3246;42.664;23.308;2023-07-16T14:11:54;9.52;;;8.52;;
6426;SDS011;3246;42.664;23.308;2023-07-16T14:14:21;10.73;;;7.53;;
6426;SDS011;3246;42.664;23.308;2023-07-16T14:16:48;8.32;;;7.53;;
6426;SDS011;3246;42.664;23.308;2023-07-16T14:19:17;8.27;;;7.47;;
6426;SDS011;3246;42.664;23.308;2023-07-16T14:21:43;11.13;;;8.43;;
6426;SDS011;3246;42.664;23.308;2023-07-16T14:24:10;11.15;;;7.22;;
6426;SDS011;3246;42.664;23.308;2023-07-16T14:26:37;8.27;;;7.40;;
6426;SDS011;3246;42.664;23.308;2023-07-16T14:29:04;9.40;;;8.52;;
6426;SDS011;3246;42.664;23.308;2023-07-16T14:31:31;9.25;;;8.15;;
6426;SDS011;3246;42.664;23.308;2023-07-16T14:33:58;8.13;;;7.30;;
6426;SDS011;3246;42.664;23.308;2023-07-16T14:36:26;10.48;;;7.88;;
6426;SDS011;3246;42.664;23.308;2023-07-16T14:38:52;8.32;;;7.57;;
6426;SDS011;3246;42.664;23.308;2023-07-16T14:41:19;10.23;;;8.02;;
6426;SDS011;3246;42.664;23.308;2023-07-16T14:43:46;8.95;;;8.15;;
6426;SDS011;3246;42.664;23.308;2023-07-16T14:46:14;9.20;;;8.30;;
6426;SDS011;3246;42.664;23.308;2023-07-16T14:48:41;9.82;;;7.88;;
6426;SDS011;3246;42.664;23.308;2023-07-16T14:51:09;7.93;;;7.18;;
6426;SDS011;3246;42.664;23.308;2023-07-16T14:53:37;8.95;;;8.05;;
6426;SDS011;3246;42.664;23.308;2023-07-16T14:56:04;12.60;;;8.40;;